createdAt,value
2022-08-05T00:01:49.165Z,57.83
2022-08-05T00:06:42.768Z,57.95
2022-08-05T00:09:13.063Z,58.07
2022-08-05T00:11:49.220Z,58.17
2022-08-05T00:19:12.507Z,58.37
2022-08-05T00:21:42.791Z,58.41
2022-08-05T00:24:16.134Z,58.36
2022-08-05T00:26:43.344Z,58.39
2022-08-05T00:29:12.418Z,58.44
2022-08-05T00:32:10.530Z,58.36
2022-08-05T00:41:51.413Z,59.01
2022-08-05T00:44:12.591Z,58.95
2022-08-05T00:46:43.775Z,58.90
2022-08-05T00:49:14.012Z,58.89
2022-08-05T00:51:50.396Z,58.98
2022-08-05T00:54:13.019Z,58.86
2022-08-05T00:56:45.061Z,58.88
2022-08-05T00:59:12.528Z,58.56
2022-08-05T01:01:48.598Z,58.70
2022-08-05T01:04:14.189Z,58.74
2022-08-05T01:09:12.497Z,58.92
2022-08-05T01:11:45.389Z,58.67
2022-08-05T01:16:48.118Z,58.44
2022-08-05T01:19:36.622Z,58.36
2022-08-05T01:21:59.774Z,58.27
2022-08-05T01:24:25.216Z,58.30
2022-08-05T01:26:55.030Z,58.54
2022-08-05T01:29:18.138Z,58.49
2022-08-05T01:31:47.123Z,58.42
2022-08-05T01:34:16.247Z,58.47
2022-08-05T01:36:51.786Z,58.56
2022-08-05T01:39:15.049Z,58.43
2022-08-05T01:41:45.440Z,58.49
2022-08-05T01:44:14.105Z,58.71
2022-08-05T01:46:46.472Z,58.69
2022-08-05T01:49:23.996Z,58.86
2022-08-05T01:51:42.477Z,59.09
2022-08-05T01:54:15.176Z,59.22
2022-08-05T01:58:13.194Z,59.29
2022-08-05T01:59:15.763Z,59.36
2022-08-05T02:01:45.256Z,59.23
2022-08-05T02:04:16.238Z,59.40
2022-08-05T02:06:42.459Z,59.43
2022-08-05T02:09:14.706Z,59.40
2022-08-05T02:11:52.143Z,59.65
2022-08-05T02:14:18.487Z,59.50
2022-08-05T02:16:46.589Z,59.58
2022-08-05T02:19:19.552Z,60.00
2022-08-05T02:21:49.262Z,60.17
2022-08-05T02:26:54.692Z,60.28
2022-08-05T02:31:45.943Z,60.43
2022-08-05T02:34:15.737Z,60.61
2022-08-05T02:36:52.532Z,60.62
2022-08-05T02:42:00.789Z,60.76
2022-08-05T02:44:13.446Z,60.95
2022-08-05T02:46:58.473Z,61.14
2022-08-05T02:52:03.917Z,61.43
2022-08-05T02:54:36.552Z,61.27
2022-08-05T03:01:44.031Z,60.95
2022-08-05T03:04:15.805Z,61.17
2022-08-05T03:06:56.560Z,61.32
2022-08-05T03:09:15.758Z,61.37
2022-08-05T03:11:55.202Z,61.48
2022-08-05T03:16:42.774Z,61.76
2022-08-05T03:19:16.884Z,61.73
2022-08-05T03:21:48.832Z,61.73
2022-08-05T03:24:13.287Z,61.48
2022-08-05T03:26:42.698Z,61.68
2022-08-05T03:29:12.877Z,61.58
2022-08-05T03:31:56.488Z,62.10
2022-08-05T03:34:12.869Z,61.90
2022-08-05T03:41:45.402Z,61.78
2022-08-05T03:44:12.592Z,62.02
2022-08-05T03:52:50.547Z,61.62
2022-08-05T03:55:06.836Z,61.55
2022-08-05T03:56:44.907Z,61.89
2022-08-05T03:59:20.210Z,61.74
2022-08-05T04:01:45.938Z,61.81
2022-08-05T04:04:14.843Z,61.93
2022-08-05T04:06:47.813Z,61.82
2022-08-05T04:09:14.536Z,61.61
2022-08-05T04:11:50.636Z,61.66
2022-08-05T04:14:17.924Z,61.72
2022-08-05T04:16:43.460Z,62.09
2022-08-05T04:19:13.113Z,61.99
2022-08-05T04:22:10.082Z,62.14
2022-08-05T04:24:19.596Z,62.28
2022-08-05T04:29:12.623Z,62.21
2022-08-05T04:31:42.905Z,62.32
2022-08-05T04:36:49.796Z,62.33
2022-08-05T04:39:12.607Z,62.20
2022-08-05T04:41:42.530Z,62.11
2022-08-05T04:51:43.585Z,62.17
2022-08-05T04:54:13.710Z,62.17
2022-08-05T04:56:42.609Z,62.24
2022-08-05T04:59:21.523Z,62.39
2022-08-05T05:02:35.272Z,62.72
2022-08-05T05:04:12.762Z,62.55
2022-08-05T05:06:44.675Z,62.56
2022-08-05T05:09:13.319Z,62.40
2022-08-05T05:11:55.658Z,62.45
2022-08-05T05:14:16.294Z,62.60
2022-08-05T05:16:42.588Z,62.79
2022-08-05T05:19:18.891Z,62.85
2022-08-05T05:21:42.524Z,62.64
2022-08-05T05:24:13.391Z,62.60
2022-08-05T05:26:42.989Z,62.78
2022-08-05T05:29:14.898Z,62.73
2022-08-05T05:31:42.829Z,62.56
2022-08-05T05:34:12.574Z,62.46
2022-08-05T05:36:42.744Z,62.18
2022-08-05T05:41:42.659Z,62.21
2022-08-05T05:44:36.229Z,62.37
2022-08-05T05:46:42.518Z,62.62
2022-08-05T05:49:22.509Z,62.84
2022-08-05T05:51:49.651Z,62.80
2022-08-05T05:54:12.801Z,62.95
2022-08-05T05:56:42.577Z,62.81
2022-08-05T05:59:12.534Z,63.10
2022-08-05T06:04:14.311Z,62.99
2022-08-05T06:06:47.788Z,63.06
2022-08-05T06:09:17.485Z,63.21
2022-08-05T06:14:12.685Z,63.18
2022-08-05T06:16:42.678Z,63.37
2022-08-05T06:19:12.722Z,63.40
2022-08-05T06:21:49.605Z,63.55
2022-08-05T06:24:14.694Z,63.49
2022-08-05T06:26:52.038Z,63.60
2022-08-05T06:29:24.980Z,63.34
2022-08-05T06:31:42.741Z,63.25
2022-08-05T06:36:56.789Z,63.88
2022-08-05T06:39:12.631Z,65.09
2022-08-05T06:41:42.698Z,64.84
2022-08-05T06:44:12.770Z,65.23
2022-08-05T06:46:42.625Z,65.61
2022-08-05T06:49:12.681Z,64.66
2022-08-05T06:51:42.569Z,66.05
2022-08-05T06:54:18.229Z,66.46
2022-08-05T06:56:42.749Z,65.29
2022-08-05T06:59:13.492Z,62.30
2022-08-05T07:01:42.676Z,62.36
2022-08-05T07:04:14.082Z,59.77
2022-08-05T07:06:42.753Z,56.90
2022-08-05T07:09:12.620Z,55.24
2022-08-05T07:11:46.674Z,50.66
2022-08-05T07:14:29.951Z,51.89
2022-08-05T07:17:57.044Z,50.55
2022-08-05T07:19:12.577Z,50.27
2022-08-05T07:22:00.072Z,49.68
2022-08-05T07:24:13.229Z,49.15
2022-08-05T07:26:43.845Z,48.71
2022-08-05T07:29:13.508Z,47.29
2022-08-05T07:31:54.715Z,46.50
2022-08-05T07:34:13.972Z,45.26
2022-08-05T07:36:42.993Z,42.51
2022-08-05T07:39:24.495Z,41.06
2022-08-05T07:42:13.475Z,41.30
2022-08-05T07:44:19.255Z,41.20
2022-08-05T07:46:48.231Z,41.00
2022-08-05T07:49:13.019Z,42.12
2022-08-05T07:51:52.904Z,42.88
2022-08-05T07:54:12.806Z,43.77
2022-08-05T07:57:01.507Z,43.18
2022-08-05T07:59:12.608Z,42.84
2022-08-05T08:01:52.273Z,42.22
2022-08-05T08:04:12.863Z,42.42
2022-08-05T08:06:42.947Z,42.47
2022-08-05T08:09:13.065Z,42.82
2022-08-05T08:11:54.292Z,43.56
2022-08-05T08:14:12.597Z,43.15
2022-08-05T08:16:50.478Z,42.97
2022-08-05T08:19:38.000Z,39.58
2022-08-05T08:21:42.656Z,41.24
2022-08-05T08:24:14.094Z,40.72
2022-08-05T08:26:42.615Z,39.35
2022-08-05T08:30:03.061Z,37.51
2022-08-05T08:31:42.890Z,39.26
2022-08-05T08:34:13.397Z,38.60
2022-08-05T08:36:51.914Z,37.41
2022-08-05T08:39:14.966Z,38.47
2022-08-05T08:41:52.344Z,34.61
2022-08-05T08:45:18.347Z,38.35
2022-08-05T08:46:44.225Z,37.05
2022-08-05T08:50:05.801Z,35.48
2022-08-05T08:52:03.554Z,34.55
2022-08-05T08:54:13.762Z,36.03
2022-08-05T08:56:47.772Z,34.02
2022-08-05T08:59:19.444Z,34.39
2022-08-05T09:01:43.934Z,33.33
2022-08-05T09:04:13.397Z,32.21
2022-08-05T09:06:42.720Z,31.08
2022-08-05T09:09:12.792Z,30.74
2022-08-05T09:11:53.460Z,31.36
2022-08-05T09:14:57.460Z,30.13
2022-08-05T09:16:48.758Z,31.51
2022-08-05T09:19:12.712Z,31.75
2022-08-05T09:22:21.828Z,30.09
2022-08-05T09:24:12.677Z,30.79
2022-08-05T09:26:46.176Z,31.10
2022-08-05T09:29:16.256Z,31.35
2022-08-05T09:32:41.032Z,30.73
2022-08-05T09:34:13.092Z,31.21
2022-08-05T09:36:54.014Z,30.70
2022-08-05T09:39:18.135Z,30.07
2022-08-05T09:41:56.308Z,28.88
2022-08-05T09:44:32.448Z,29.37
2022-08-05T09:46:51.818Z,29.34
2022-08-05T09:49:22.572Z,29.24
2022-08-05T09:51:42.897Z,28.17
2022-08-05T09:54:12.892Z,28.51
2022-08-05T09:56:51.600Z,28.60
2022-08-05T09:59:17.176Z,28.79
2022-08-05T10:01:45.754Z,26.17
2022-08-05T10:04:14.113Z,26.79
2022-08-05T10:06:59.117Z,25.98
2022-08-05T10:09:28.304Z,26.70
2022-08-05T10:11:44.441Z,27.19
2022-08-05T10:14:22.042Z,26.60
2022-08-05T10:16:53.004Z,26.62
2022-08-05T10:19:14.867Z,27.29
2022-08-05T10:21:44.589Z,26.16
2022-08-05T10:24:13.688Z,26.41
2022-08-05T10:26:51.718Z,25.40
2022-08-05T10:29:13.066Z,25.60
2022-08-05T10:32:51.846Z,24.46
2022-08-05T10:34:12.773Z,24.90
2022-08-05T10:36:43.160Z,25.06
2022-08-05T10:39:24.915Z,25.15
2022-08-05T10:42:00.826Z,24.25
2022-08-05T10:44:17.259Z,25.24
2022-08-05T10:46:45.144Z,25.87
2022-08-05T10:49:16.677Z,24.85
2022-08-05T10:51:48.686Z,26.84
2022-08-05T10:54:28.208Z,26.79
2022-08-05T10:56:44.998Z,26.31
2022-08-05T11:00:02.103Z,26.05
2022-08-05T11:01:55.290Z,22.88
2022-08-05T11:04:16.424Z,24.87
2022-08-05T11:07:03.804Z,24.52
2022-08-05T11:09:17.405Z,25.24
2022-08-05T11:11:53.627Z,25.48
2022-08-05T11:14:37.077Z,25.10
2022-08-05T11:16:55.993Z,25.31
2022-08-05T11:20:16.840Z,25.67
2022-08-05T11:21:49.351Z,25.94
2022-08-05T11:24:30.006Z,26.28
2022-08-05T11:26:43.364Z,26.63
2022-08-05T11:29:32.521Z,27.39
2022-08-05T11:31:56.930Z,27.95
2022-08-05T11:34:14.792Z,28.41
2022-08-05T11:36:46.257Z,29.26
2022-08-05T11:39:14.664Z,29.76
2022-08-05T11:42:01.033Z,29.98
2022-08-05T11:44:40.420Z,30.35
2022-08-05T11:47:09.925Z,30.16
2022-08-05T11:49:14.200Z,30.09
2022-08-05T11:51:49.255Z,29.79
2022-08-05T11:54:19.696Z,30.46
2022-08-05T11:56:44.842Z,30.14
2022-08-05T11:59:15.980Z,29.22
2022-08-05T12:01:53.885Z,28.68
2022-08-05T12:04:12.805Z,29.29
2022-08-05T12:06:48.675Z,28.93
2022-08-05T12:09:19.982Z,29.38
2022-08-05T12:11:43.556Z,30.16
2022-08-05T12:14:13.140Z,30.44
2022-08-05T12:16:46.426Z,29.98
2022-08-05T12:20:16.846Z,29.16
2022-08-05T12:21:45.975Z,30.42
2022-08-05T12:24:17.273Z,29.64
2022-08-05T12:26:44.721Z,28.89
2022-08-05T12:29:16.153Z,29.16
2022-08-05T12:31:50.116Z,28.74
2022-08-05T12:34:14.652Z,29.33
2022-08-05T12:36:44.965Z,29.23
2022-08-05T12:39:13.264Z,28.99
2022-08-05T12:41:43.802Z,29.97
2022-08-05T12:44:21.644Z,30.42
2022-08-05T12:46:51.571Z,30.93
2022-08-05T12:49:14.320Z,31.05
2022-08-05T12:52:12.897Z,31.21
2022-08-05T12:54:23.646Z,32.33
2022-08-05T12:56:47.096Z,34.65
2022-08-05T12:59:14.599Z,34.27
2022-08-05T13:02:00.257Z,35.14
2022-08-05T13:06:51.582Z,36.84
2022-08-05T13:09:13.349Z,35.56
2022-08-05T13:12:03.233Z,36.07
2022-08-05T13:14:15.596Z,36.20
2022-08-05T13:16:46.275Z,36.83
2022-08-05T13:19:13.176Z,36.22
2022-08-05T13:21:48.159Z,36.36
2022-08-05T13:24:13.379Z,36.08
2022-08-05T13:26:43.670Z,35.99
2022-08-05T13:29:19.147Z,36.53
2022-08-05T13:32:04.101Z,36.34
2022-08-05T13:34:21.144Z,36.35
2022-08-05T13:36:43.034Z,36.80
2022-08-05T13:39:24.706Z,36.94
2022-08-05T13:41:43.234Z,36.36
2022-08-05T13:44:13.046Z,35.62
2022-08-05T13:47:04.687Z,35.57
2022-08-05T13:49:12.982Z,36.22
2022-08-05T13:51:46.409Z,35.99
2022-08-05T13:54:15.210Z,36.00
2022-08-05T13:56:45.209Z,36.00
2022-08-05T13:59:19.478Z,36.42
2022-08-05T14:01:46.575Z,36.70
2022-08-05T14:04:26.604Z,36.60
2022-08-05T14:06:47.592Z,36.75
2022-08-05T14:12:04.199Z,37.40
2022-08-05T14:14:12.735Z,37.45
2022-08-05T14:16:42.903Z,37.33
2022-08-05T14:19:12.825Z,37.28
2022-08-05T14:22:09.042Z,37.03
2022-08-05T14:24:13.058Z,37.09
2022-08-05T14:26:56.560Z,37.13
2022-08-05T14:29:16.464Z,37.28
2022-08-05T14:32:02.949Z,36.91
2022-08-05T14:34:13.096Z,37.09
2022-08-05T14:36:42.856Z,37.44
2022-08-05T14:39:12.904Z,37.75
2022-08-05T14:42:02.367Z,37.96
2022-08-05T14:44:20.258Z,37.96
2022-08-05T14:46:42.953Z,37.62
2022-08-05T14:49:12.956Z,36.49
2022-08-05T14:51:43.221Z,36.44
2022-08-05T14:54:30.285Z,36.24
2022-08-05T14:56:44.193Z,36.26
2022-08-05T14:59:13.141Z,36.89
2022-08-05T15:01:48.262Z,37.20
2022-08-05T15:04:12.809Z,37.39
2022-08-05T15:06:49.603Z,37.29
2022-08-05T15:09:12.789Z,36.69
2022-08-05T15:11:53.200Z,36.59
2022-08-05T15:14:33.523Z,36.65
2022-08-05T15:16:42.958Z,36.55
2022-08-05T15:19:23.463Z,36.65
2022-08-05T15:21:43.150Z,36.48
2022-08-05T15:24:13.419Z,36.64
2022-08-05T15:26:42.841Z,36.84
2022-08-05T15:29:12.838Z,36.95
2022-08-05T15:31:44.441Z,37.14
2022-08-05T15:34:31.628Z,37.29
2022-08-05T15:40:59.542Z,37.41
2022-08-05T15:41:55.544Z,37.70
2022-08-05T15:44:13.048Z,37.71
2022-08-05T15:46:42.914Z,37.78
2022-08-05T15:49:18.156Z,37.71
2022-08-05T15:52:04.180Z,37.90
2022-08-05T15:54:15.157Z,38.20
2022-08-05T15:56:43.537Z,38.75
2022-08-05T15:59:21.774Z,39.56
2022-08-05T16:01:52.815Z,39.63
2022-08-05T16:04:12.968Z,39.08
2022-08-05T16:06:43.080Z,38.72
2022-08-05T16:09:12.851Z,38.50
2022-08-05T16:11:43.868Z,38.31
2022-08-05T16:14:17.281Z,38.16
2022-08-05T16:16:43.117Z,38.20
2022-08-05T16:19:25.400Z,38.10
2022-08-05T16:22:01.154Z,38.24
2022-08-05T16:24:39.580Z,38.46
2022-08-05T16:26:52.709Z,38.57
2022-08-05T16:29:13.219Z,38.70
2022-08-05T16:31:56.874Z,38.99
2022-08-05T16:34:13.274Z,38.80
2022-08-05T16:36:43.065Z,38.83
2022-08-05T16:39:13.639Z,38.83
2022-08-05T16:42:14.309Z,39.28
2022-08-05T16:44:14.622Z,39.18
2022-08-05T16:46:55.445Z,39.50
2022-08-05T16:49:13.163Z,39.80
2022-08-05T16:51:50.947Z,39.63
2022-08-05T16:54:17.544Z,40.07
2022-08-05T16:56:42.916Z,40.58
2022-08-05T16:59:15.759Z,40.16
2022-08-05T17:01:53.837Z,40.09
2022-08-05T17:04:12.956Z,40.35
2022-08-05T17:06:42.924Z,40.38
2022-08-05T17:09:12.947Z,40.34
2022-08-05T17:11:48.701Z,40.20
2022-08-05T17:14:13.468Z,40.44
2022-08-05T17:16:42.959Z,40.60
2022-08-05T17:19:13.077Z,40.44
2022-08-05T17:21:42.909Z,40.50
2022-08-05T17:24:30.375Z,40.84
2022-08-05T17:26:43.665Z,41.59
2022-08-05T17:31:58.304Z,41.70
2022-08-05T17:34:17.755Z,41.22
2022-08-05T17:39:24.509Z,41.32
2022-08-05T17:42:19.801Z,41.89
2022-08-05T17:44:12.916Z,41.67
2022-08-05T17:49:12.976Z,41.59
2022-08-05T17:51:43.093Z,41.83
2022-08-05T17:54:13.480Z,41.89
2022-08-05T17:56:42.998Z,41.91
2022-08-05T17:59:12.916Z,42.05
2022-08-05T18:01:49.547Z,42.11
2022-08-05T18:04:13.005Z,42.00
2022-08-05T18:06:42.955Z,41.79
2022-08-05T18:09:14.600Z,41.75
2022-08-05T18:11:43.039Z,41.91
2022-08-05T18:14:13.681Z,41.96
2022-08-05T18:16:51.544Z,42.26
2022-08-05T18:19:13.083Z,42.46
2022-08-05T18:22:09.617Z,42.74
2022-08-05T18:24:14.473Z,42.53
2022-08-05T18:26:43.938Z,42.41
2022-08-05T18:29:13.056Z,42.63
2022-08-05T18:31:43.329Z,42.54
2022-08-05T18:34:13.422Z,42.61
2022-08-05T18:36:43.706Z,42.58
2022-08-05T18:39:42.489Z,42.73
2022-08-05T18:41:57.175Z,42.69
2022-08-05T18:44:12.910Z,42.96
2022-08-05T18:46:43.093Z,43.01
2022-08-05T18:49:22.930Z,43.20
2022-08-05T18:52:04.015Z,43.32
2022-08-05T18:54:12.931Z,43.48
2022-08-05T18:56:51.214Z,43.86
2022-08-05T18:59:43.651Z,43.84
2022-08-05T19:01:48.022Z,43.98
2022-08-05T19:04:12.909Z,44.10
2022-08-05T19:06:44.825Z,44.16
2022-08-05T19:09:12.908Z,44.36
2022-08-05T19:12:00.196Z,44.49
2022-08-05T19:14:53.450Z,44.55
2022-08-05T19:16:47.091Z,44.79
2022-08-05T19:19:13.362Z,44.86
2022-08-05T19:21:42.942Z,45.31
2022-08-05T19:24:13.253Z,45.40
2022-08-05T19:26:55.009Z,45.35
2022-08-05T19:29:12.951Z,45.54
2022-08-05T19:31:44.936Z,45.40
2022-08-05T19:34:12.979Z,45.70
2022-08-05T19:36:43.136Z,45.59
2022-08-05T19:39:13.157Z,45.90
2022-08-05T19:42:06.460Z,45.98
2022-08-05T19:44:14.125Z,45.99
2022-08-05T19:46:43.804Z,45.97
2022-08-05T19:49:17.290Z,45.88
2022-08-05T19:52:08.996Z,46.26
2022-08-05T19:54:21.680Z,46.40
2022-08-05T19:56:42.912Z,46.12
2022-08-05T19:59:54.600Z,46.08
2022-08-05T20:01:43.129Z,46.57
2022-08-05T20:04:13.471Z,46.48
2022-08-05T20:06:45.975Z,46.62
2022-08-05T20:09:14.174Z,46.78
2022-08-05T20:11:42.971Z,46.89
2022-08-05T20:14:14.684Z,46.70
2022-08-05T20:16:43.119Z,46.88
2022-08-05T20:19:13.460Z,47.08
2022-08-05T20:21:43.460Z,47.53
2022-08-05T20:24:13.478Z,47.68
2022-08-05T20:26:43.239Z,47.79
2022-08-05T20:29:26.548Z,47.90
2022-08-05T20:31:53.530Z,47.73
2022-08-05T20:34:12.938Z,47.79
2022-08-05T20:36:43.848Z,47.92
2022-08-05T20:39:13.542Z,48.27
2022-08-05T20:41:45.225Z,48.12
2022-08-05T20:44:19.243Z,48.12
2022-08-05T20:46:43.094Z,48.12
2022-08-05T20:49:13.774Z,47.99
2022-08-05T20:51:44.303Z,48.28
2022-08-05T20:53:42.525Z,48.28
2022-08-05T20:54:14.093Z,48.28
2022-08-05T20:55:56.829Z,48.43
2022-08-05T20:56:43.218Z,48.51
2022-08-05T20:57:43.408Z,48.51
2022-08-05T20:59:19.205Z,48.51
2022-08-05T21:01:44.015Z,48.53
2022-08-05T21:03:51.336Z,48.53
2022-08-05T21:04:13.073Z,48.78
2022-08-05T21:05:53.350Z,48.78
2022-08-05T21:06:45.109Z,48.78
2022-08-05T21:07:51.008Z,49.02
2022-08-05T21:09:15.208Z,49.17
2022-08-05T21:09:34.679Z,49.17
2022-08-05T21:12:09.861Z,49.17
2022-08-05T21:12:10.094Z,49.17
2022-08-05T21:14:13.181Z,49.26
2022-08-05T21:16:07.719Z,49.10
2022-08-05T21:16:43.307Z,49.10
2022-08-05T21:19:08.523Z,49.15
2022-08-05T21:19:12.751Z,49.15
2022-08-05T21:21:44.321Z,49.20
2022-08-05T21:21:51.285Z,49.31
2022-08-05T21:23:39.090Z,49.31
2022-08-05T21:24:13.535Z,49.31
2022-08-05T21:25:34.830Z,49.24
2022-08-05T21:26:50.575Z,49.24
2022-08-05T21:28:50.911Z,49.57
2022-08-05T21:29:16.675Z,49.62
2022-08-05T21:31:43.008Z,49.62
2022-08-05T21:32:08.339Z,49.78
2022-08-05T21:34:14.796Z,50.14
2022-08-05T21:35:58.444Z,50.14
2022-08-05T21:36:43.486Z,50.14
2022-08-05T21:37:42.849Z,50.54
2022-08-05T21:39:16.984Z,50.59
2022-08-05T21:39:40.647Z,50.59
2022-08-05T21:41:37.607Z,50.59
2022-08-05T21:41:43.019Z,50.59
2022-08-05T21:43:41.722Z,50.68
2022-08-05T21:46:45.895Z,50.64
2022-08-05T21:49:48.301Z,50.64
2022-08-05T21:49:59.367Z,50.91
2022-08-05T21:52:16.707Z,50.91
2022-08-05T21:52:23.054Z,50.85
2022-08-05T21:53:37.402Z,50.85
2022-08-05T21:56:01.594Z,50.62
2022-08-05T21:56:44.594Z,50.94
2022-08-05T21:57:36.747Z,50.94
2022-08-05T21:59:24.375Z,50.94
2022-08-05T21:59:48.098Z,50.95
2022-08-05T22:01:43.163Z,50.95
2022-08-05T22:02:07.680Z,50.92
2022-08-05T22:04:13.417Z,50.92
2022-08-05T22:05:09.064Z,51.23
2022-08-05T22:06:43.281Z,51.23
2022-08-05T22:07:58.751Z,51.47
2022-08-05T22:09:15.383Z,51.24
2022-08-05T22:09:45.927Z,51.24
2022-08-05T22:11:49.325Z,51.15
2022-08-05T22:14:19.586Z,51.15
2022-08-05T22:14:35.768Z,51.15
2022-08-05T22:16:01.499Z,51.15
2022-08-05T22:16:51.954Z,51.15
2022-08-05T22:17:56.292Z,51.31
2022-08-05T22:19:55.870Z,51.31
2022-08-05T22:20:01.088Z,51.70
2022-08-05T22:21:18.957Z,51.70
2022-08-05T22:21:43.523Z,51.70
2022-08-05T22:24:02.299Z,51.61
2022-08-05T22:24:39.628Z,51.33
2022-08-05T22:26:10.573Z,51.33
2022-08-05T22:26:52.881Z,51.28
2022-08-05T22:28:08.538Z,51.28
2022-08-05T22:29:14.493Z,50.95
2022-08-05T22:31:44.569Z,51.29
2022-08-05T22:31:45.492Z,51.29
2022-08-05T22:33:56.860Z,51.29
2022-08-05T22:35:47.830Z,51.31
2022-08-05T22:36:43.095Z,51.31
2022-08-05T22:38:43.869Z,51.37
2022-08-05T22:39:15.936Z,51.51
2022-08-05T22:42:09.664Z,51.51
2022-08-05T22:42:11.632Z,51.29
2022-08-05T22:43:39.631Z,51.29
2022-08-05T22:44:13.209Z,51.29
2022-08-05T22:45:37.686Z,51.17
2022-08-05T22:46:43.214Z,51.17
2022-08-05T22:47:34.505Z,51.25
2022-08-05T22:49:23.214Z,51.25
2022-08-05T22:49:46.010Z,51.27
2022-08-05T22:52:04.876Z,51.23
2022-08-05T22:52:43.014Z,51.23
2022-08-05T22:54:13.324Z,51.23
2022-08-05T22:54:37.552Z,51.06
2022-08-05T22:56:45.865Z,51.06
2022-08-05T22:59:02.884Z,51.06
2022-08-05T22:59:45.542Z,50.86
2022-08-05T23:01:10.144Z,50.86
2022-08-05T23:02:04.178Z,50.86
2022-08-05T23:03:13.553Z,50.96
2022-08-05T23:04:13.195Z,50.96
2022-08-05T23:05:14.669Z,51.09
2022-08-05T23:06:43.102Z,51.09
2022-08-05T23:07:26.635Z,50.92
2022-08-05T23:09:53.419Z,50.92
2022-08-05T23:11:28.143Z,50.92
2022-08-05T23:11:46.632Z,50.92
2022-08-05T23:13:13.541Z,50.97
2022-08-05T23:14:13.060Z,50.97
2022-08-05T23:15:56.151Z,50.95
2022-08-05T23:16:52.960Z,51.37
2022-08-05T23:18:00.551Z,51.37
2022-08-05T23:19:23.663Z,51.37
2022-08-05T23:20:44.536Z,51.71
2022-08-05T23:21:48.413Z,51.71
2022-08-05T23:22:58.581Z,51.49
2022-08-05T23:24:13.250Z,51.49
2022-08-05T23:25:53.572Z,51.36
2022-08-05T23:26:44.139Z,51.36
2022-08-05T23:28:08.451Z,51.32
2022-08-05T23:29:15.825Z,51.42
2022-08-05T23:31:57.200Z,51.40
2022-08-05T23:34:04.060Z,51.40
2022-08-05T23:34:12.973Z,51.40
2022-08-05T23:35:44.426Z,51.29
2022-08-05T23:36:44.590Z,51.29
2022-08-05T23:37:57.208Z,51.34
2022-08-05T23:39:17.660Z,51.35
2022-08-05T23:39:53.920Z,51.35
2022-08-05T23:41:59.077Z,51.54
2022-08-05T23:44:15.413Z,51.74
2022-08-05T23:45:23.762Z,51.74
2022-08-05T23:46:43.291Z,51.74
2022-08-05T23:47:59.380Z,51.67
2022-08-05T23:49:16.831Z,51.67
2022-08-05T23:49:56.754Z,51.84
2022-08-05T23:51:53.486Z,51.84
2022-08-05T23:53:22.866Z,51.84
2022-08-05T23:54:13.148Z,51.84
2022-08-05T23:55:42.642Z,51.98
2022-08-05T23:56:43.106Z,51.98
2022-08-05T23:58:31.747Z,52.12
2022-08-05T23:59:13.009Z,52.12
